RJTH(METAR)
05/07 17:00
RJTH 070800Z 04003KT 3500 RA FEW001 SCT005 BKN010 17/17 Q1011 RMK
A2987=
戻る
トップページへ戻る
IMOC Co,.Ltd.